Time;durP1;ratioP1;P1;durP2;ratioP2;P2;SDS_P1;SDS_P2;PMS_P1;PMS_P2;Temp;Humidity;BMP_temperature;BMP_pressure;BME280_temperature;BME280_humidity;BME280_pressure;Samples;Min_cycle;Max_cycle;Signal;HPM_P1;HPM_P2
2022/11/11 00:01:00;;;;;;;5.60;2.80;;;;;;;22.12;45.75;102586.34;5091554;28;20130;-69
2022/11/11 00:03:44;;;;;;;4.93;2.95;;;;;;;22.20;45.40;102582.91;5092745;28;20524;-69
2022/11/11 00:06:28;;;;;;;4.75;3.05;;;;;;;22.18;45.80;102595.50;5088974;28;20050;-69
2022/11/11 00:09:12;;;;;;;6.35;2.60;;;;;;;22.19;45.44;102597.16;5088713;28;20065;-70
2022/11/11 00:11:56;;;;;;;5.65;2.58;;;;;;;22.15;45.66;102599.31;5091470;28;20050;-69
2022/11/11 00:14:40;;;;;;;6.40;2.80;;;;;;;22.18;45.45;102593.69;5090116;28;20050;-70
2022/11/11 00:26:34;;;;;;;5.40;2.83;;;;;;;22.05;45.99;102606.50;5090321;28;20126;-69
2022/11/11 00:29:19;;;;;;;5.72;2.92;;;;;;;22.07;45.98;102609.00;5089060;28;21243;-69
2022/11/11 00:32:22;;;;;;;7.00;3.05;;;;;;;22.15;45.55;102595.81;5086167;28;20058;-69
2022/11/11 00:38:44;;;;;;;4.95;2.92;;;;;;;22.02;45.79;102566.97;5092594;28;20897;-69
2022/11/11 00:41:18;;;;;;;4.60;2.60;;;;;;;22.01;45.81;102560.00;5087452;28;20042;-70
2022/11/11 00:44:03;;;;;;;5.40;3.28;;;;;;;22.08;45.56;102562.91;5086683;28;20054;-69
2022/11/11 00:52:53;;;;;;;7.85;3.30;;;;;;;21.96;45.94;102557.81;5083834;28;20674;-69
2022/11/11 00:55:37;;;;;;;4.72;2.55;;;;;;;22.06;45.77;102556.91;5090944;28;20678;-69
2022/11/11 00:58:22;;;;;;;5.13;2.72;;;;;;;21.95;45.94;102540.25;5084634;28;20102;-69
2022/11/11 01:01:06;;;;;;;6.95;2.78;;;;;;;21.94;46.19;102546.53;5087722;28;20046;-69
2022/11/11 01:03:51;;;;;;;4.60;2.90;;;;;;;22.02;45.71;102553.72;5088749;27;20077;-69
2022/11/11 01:06:36;;;;;;;5.82;2.70;;;;;;;21.98;46.03;102558.50;5091495;28;20101;-69
2022/11/11 01:09:20;;;;;;;7.10;3.38;;;;;;;21.91;45.78;102559.28;5089724;28;20059;-69
2022/11/11 01:12:04;;;;;;;6.15;2.83;;;;;;;21.90;46.36;102560.22;5084410;28;20050;-68
2022/11/11 01:14:48;;;;;;;6.47;3.33;;;;;;;21.87;46.32;102566.66;5088926;28;20118;-69
2022/11/11 01:17:32;;;;;;;5.70;2.80;;;;;;;21.91;46.16;102565.41;5092201;28;20726;-69
2022/11/11 01:20:16;;;;;;;7.13;3.08;;;;;;;21.96;46.02;102556.97;5091274;28;20252;-69
2022/11/11 01:23:00;;;;;;;4.53;3.42;;;;;;;21.94;46.01;102554.50;5088050;28;20121;-69
2022/11/11 01:25:45;;;;;;;5.45;3.05;;;;;;;21.90;46.10;102550.47;5082274;28;20055;-69
2022/11/11 01:28:29;;;;;;;4.50;2.63;;;;;;;21.89;46.06;102538.16;5087383;28;20397;-69
2022/11/11 01:31:15;;;;;;;4.38;2.78;;;;;;;21.97;45.75;102538.25;5087718;28;20357;-69
2022/11/11 01:33:59;;;;;;;4.78;3.08;;;;;;;21.92;45.88;102537.06;5091434;28;20529;-69
2022/11/11 01:36:43;;;;;;;4.50;2.83;;;;;;;21.87;45.98;102526.88;5085423;28;20478;-69
2022/11/11 01:39:27;;;;;;;6.72;3.10;;;;;;;21.95;45.94;102534.09;5091305;28;20412;-69
2022/11/11 01:42:11;;;;;;;5.68;3.13;;;;;;;21.88;46.21;102530.38;5091987;28;20082;-69
2022/11/11 01:44:55;;;;;;;5.32;3.10;;;;;;;21.91;45.80;102522.97;5089733;28;20042;-69
2022/11/11 01:50:42;;;;;;;5.25;3.03;;;;;;;21.86;46.38;102529.69;5087488;28;20068;-69
2022/11/11 01:53:26;;;;;;;8.90;3.28;;;;;;;21.81;46.40;102532.81;5093460;28;20062;-69
2022/11/11 01:56:11;;;;;;;7.47;3.38;;;;;;;21.90;46.21;102544.31;5092460;28;20079;-69
2022/11/11 01:59:00;;;;;;;5.38;2.60;;;;;;;21.92;45.74;102545.84;5093853;28;20117;-69
2022/11/11 02:01:45;;;;;;;4.93;2.72;;;;;;;21.87;46.27;102553.41;5093687;28;20050;-69
2022/11/11 02:07:34;;;;;;;4.43;2.97;;;;;;;21.92;45.88;102563.59;5089357;28;20051;-69
2022/11/11 02:10:22;;;;;;;4.65;3.00;;;;;;;21.84;45.96;102566.13;5092363;28;20125;-69
2022/11/11 02:16:16;;;;;;;6.60;3.40;;;;;;;21.87;45.93;102563.19;5093054;28;20051;-69
2022/11/11 02:19:00;;;;;;;5.35;3.15;;;;;;;21.73;46.38;102558.44;5091329;28;20154;-69
2022/11/11 02:21:53;;;;;;;5.75;3.08;;;;;;;21.75;46.48;102559.94;5092232;28;20046;-69
2022/11/11 02:24:39;;;;;;;5.22;2.90;;;;;;;21.73;46.21;102550.47;5090416;28;20089;-70
2022/11/11 02:27:27;;;;;;;6.00;3.13;;;;;;;21.84;46.37;102568.78;5088054;28;20051;-69
2022/11/11 02:30:14;;;;;;;6.32;3.45;;;;;;;21.87;46.21;102571.13;5088574;28;20073;-69
2022/11/11 02:32:59;;;;;;;5.45;3.60;;;;;;;21.88;46.25;102578.09;5092435;28;21025;-69
2022/11/11 02:35:53;;;;;;;7.18;3.08;;;;;;;21.81;46.37;102583.19;5088262;28;20066;-69
2022/11/11 02:38:37;;;;;;;5.05;3.60;;;;;;;21.75;46.17;102589.09;5086480;28;21960;-69
2022/11/11 02:44:25;;;;;;;4.43;3.25;;;;;;;21.87;46.04;102590.53;5088821;28;20055;-69
2022/11/11 02:47:09;;;;;;;4.93;3.10;;;;;;;21.87;45.99;102579.94;5083209;28;20174;-69
2022/11/11 02:49:53;;;;;;;5.45;3.05;;;;;;;21.78;46.36;102574.72;5087079;28;20046;-70
2022/11/11 02:52:36;;;;;;;4.63;3.00;;;;;;;21.81;46.06;102577.88;5083984;28;20451;-69
2022/11/11 02:55:20;;;;;;;5.93;3.53;;;;;;;21.77;46.09;102578.34;5086153;28;20069;-70
2022/11/11 02:58:05;;;;;;;6.03;3.35;;;;;;;21.78;46.39;102578.19;5084369;28;20055;-69
2022/11/11 03:00:49;;;;;;;4.97;3.20;;;;;;;21.80;46.18;102568.28;5089795;28;20126;-69
2022/11/11 03:03:33;;;;;;;6.78;3.60;;;;;;;21.88;46.00;102580.75;5081281;28;20047;-69
2022/11/11 03:06:17;;;;;;;5.22;3.20;;;;;;;21.71;46.33;102579.75;5086647;28;20132;-69
2022/11/11 03:09:01;;;;;;;5.35;2.90;;;;;;;21.73;46.48;102569.03;5085260;28;20125;-69
2022/11/11 03:11:45;;;;;;;6.18;3.05;;;;;;;21.79;46.30;102577.22;5078189;28;20051;-68
2022/11/11 03:14:29;;;;;;;5.97;3.22;;;;;;;21.75;46.10;102589.09;5088372;28;20093;-69
2022/11/11 03:23:21;;;;;;;5.85;3.58;;;;;;;21.80;46.01;102599.25;5083784;28;20046;-69
2022/11/11 03:26:05;;;;;;;7.60;3.55;;;;;;;21.77;46.40;102594.25;5091665;28;20054;-69
2022/11/11 03:28:49;;;;;;;6.03;3.17;;;;;;;21.71;46.24;102595.66;5090635;28;20078;-69
2022/11/11 03:31:33;;;;;;;5.35;3.13;;;;;;;21.72;46.43;102597.34;5086930;28;20097;-69
2022/11/11 03:34:17;;;;;;;4.30;2.92;;;;;;;21.82;46.00;102603.44;5088536;28;20051;-68
2022/11/11 03:40:04;;;;;;;4.28;2.85;;;;;;;21.81;45.89;102608.88;5091654;28;20431;-68
2022/11/11 03:42:48;;;;;;;7.88;3.55;;;;;;;21.76;46.33;102612.00;5092105;28;20138;-68
2022/11/11 03:45:32;;;;;;;4.57;2.95;;;;;;;21.74;46.04;102613.97;5085331;28;20131;-68
2022/11/11 03:48:16;;;;;;;6.95;3.05;;;;;;;21.74;46.07;102610.47;5088508;28;20459;-68
2022/11/11 03:51:00;;;;;;;6.10;3.33;;;;;;;21.70;46.10;102599.31;5086739;28;20074;-68
2022/11/11 03:53:44;;;;;;;5.15;3.25;;;;;;;21.75;46.27;102612.13;5088926;28;20054;-68
2022/11/11 03:56:28;;;;;;;6.28;3.63;;;;;;;21.76;46.30;102601.38;5088339;28;20051;-68
2022/11/11 03:59:12;;;;;;;4.72;3.28;;;;;;;21.70;46.19;102599.31;5090300;28;20058;-69
2022/11/11 04:11:13;;;;;;;4.80;3.67;;;;;;;21.68;46.28;102601.28;5090745;28;20104;-68
2022/11/11 04:17:04;;;;;;;6.70;3.55;;;;;;;21.66;46.59;102603.25;5097292;28;20127;-68
2022/11/11 04:22:52;;;;;;;8.38;3.60;;;;;;;21.70;46.30;102604.59;5096164;28;20050;-68
2022/11/11 04:25:48;;;;;;;7.07;3.90;;;;;;;21.71;46.45;102606.28;5089149;28;20225;-68
2022/11/11 04:32:34;;;;;;;5.28;3.70;;;;;;;21.70;46.17;102602.78;5092319;28;20054;-69
2022/11/11 04:34:42;;;;;;;5.05;3.47;;;;;;;21.67;46.14;102618.16;5096489;28;20092;-69
2022/11/11 04:37:30;;;;;;;7.47;3.65;;;;;;;21.67;46.28;102610.22;5092209;28;20474;-68
2022/11/11 04:43:18;;;;;;;5.38;3.80;;;;;;;21.77;46.27;102607.53;5096291;28;20582;-68
2022/11/11 04:46:02;;;;;;;8.27;3.92;;;;;;;21.71;46.31;102603.63;5094884;28;20181;-68
2022/11/11 04:48:46;;;;;;;5.72;3.55;;;;;;;21.69;46.09;102606.44;5091943;28;20128;-68
2022/11/11 04:52:25;;;;;;;5.15;4.07;;;;;;;21.67;46.58;102599.59;5093374;28;20104;-68
2022/11/11 04:56:46;;;;;;;4.63;3.65;;;;;;;21.67;46.05;102597.78;5090992;28;20073;-67
2022/11/11 04:57:46;;;;;;;5.90;4.47;;;;;;;21.66;46.47;102608.53;5094024;28;20051;-69
2022/11/11 05:00:30;;;;;;;5.50;3.88;;;;;;;21.62;46.50;102600.06;5090689;28;20792;-68
2022/11/11 05:03:17;;;;;;;5.57;3.90;;;;;;;21.66;46.06;102609.38;5091756;28;20042;-68
2022/11/11 05:09:04;;;;;;;5.15;3.95;;;;;;;21.57;46.83;102601.50;5090683;28;20050;-68
2022/11/11 05:11:48;;;;;;;5.40;3.67;;;;;;;21.63;46.22;102607.03;5087969;28;20130;-68
2022/11/11 05:26:43;;;;;;;6.22;4.28;;;;;;;21.60;46.33;102607.34;5089326;28;20405;-68
2022/11/11 05:29:27;;;;;;;5.45;3.95;;;;;;;21.66;46.41;102608.53;5096139;28;20054;-69
2022/11/11 05:36:06;;;;;;;6.68;4.28;;;;;;;21.56;46.65;102608.63;5090531;28;20653;-68
2022/11/11 05:38:50;;;;;;;6.20;4.32;;;;;;;21.65;46.34;102613.03;5090451;28;20136;-68
2022/11/11 05:41:34;;;;;;;7.47;4.75;;;;;;;21.65;46.29;102615.66;5093722;28;20210;-68
2022/11/11 05:44:18;;;;;;;6.80;4.10;;;;;;;21.52;46.71;102620.47;5093082;28;20532;-68
2022/11/11 05:47:02;;;;;;;5.18;4.20;;;;;;;21.54;46.32;102622.97;5087704;28;20081;-68
2022/11/11 05:49:46;;;;;;;6.53;4.30;;;;;;;21.50;46.58;102622.44;5082847;28;20508;-68
2022/11/11 05:52:31;;;;;;;6.63;4.47;;;;;;;21.49;46.33;102619.94;5088965;28;20139;-67
2022/11/11 05:55:15;;;;;;;7.47;4.50;;;;;;;21.57;46.21;102623.53;5088051;28;20047;-69
2022/11/11 05:57:59;;;;;;;6.47;3.95;;;;;;;21.45;46.77;102629.19;5087508;28;20095;-69
2022/11/11 06:00:43;;;;;;;5.32;4.45;;;;;;;21.53;46.36;102627.44;5084387;28;20144;-68
2022/11/11 06:03:27;;;;;;;5.10;3.95;;;;;;;21.60;46.09;102623.25;5086427;28;20105;-68
2022/11/11 06:06:12;;;;;;;6.22;4.38;;;;;;;21.56;46.19;102634.28;5088384;28;20139;-68
2022/11/11 06:08:57;;;;;;;6.53;4.20;;;;;;;21.47;46.80;102636.00;5085174;28;20136;-68
2022/11/11 06:11:41;;;;;;;5.32;4.10;;;;;;;21.51;46.83;102639.19;5087005;28;20050;-68
2022/11/11 06:14:25;;;;;;;5.50;3.95;;;;;;;21.55;46.31;102637.94;5089025;28;20043;-68
2022/11/11 06:17:09;;;;;;;6.60;4.43;;;;;;;21.54;46.42;102639.72;5091886;28;20039;-68
2022/11/11 06:19:53;;;;;;;6.68;4.57;;;;;;;21.59;46.10;102648.09;5081443;28;20054;-68
2022/11/11 06:22:55;;;;;;;5.43;4.30;;;;;;;21.54;46.41;102658.28;5081165;28;20035;-68
2022/11/11 06:28:51;;;;;;;5.65;4.65;;;;;;;21.50;46.60;102662.22;5085004;28;20188;-68
2022/11/11 06:31:35;;;;;;;8.55;4.80;;;;;;;21.51;46.66;102665.69;5086574;28;20127;-68
2022/11/11 06:34:19;;;;;;;7.53;5.18;;;;;;;21.55;46.28;102659.97;5083835;28;20606;-67
2022/11/11 06:37:03;;;;;;;8.93;4.75;;;;;;;21.61;46.29;102667.31;5088251;28;20066;-68
2022/11/11 06:39:47;;;;;;;7.15;4.65;;;;;;;21.53;46.41;102671.69;5087128;28;20109;-68
2022/11/11 06:42:36;;;;;;;6.85;4.55;;;;;;;21.60;46.39;102668.31;5087842;28;20768;-68
2022/11/11 06:45:20;;;;;;;7.55;4.60;;;;;;;21.47;46.47;102665.16;5087251;28;20109;-68
2022/11/11 06:48:04;;;;;;;6.10;4.50;;;;;;;21.59;46.13;102661.34;5086112;28;20159;-68
2022/11/11 06:50:49;;;;;;;7.57;4.57;;;;;;;21.56;46.65;102668.75;5091038;28;20043;-68
2022/11/11 06:53:35;;;;;;;6.18;4.20;;;;;;;21.57;46.46;102665.13;5089281;28;20046;-68
2022/11/11 06:56:19;;;;;;;6.57;3.97;;;;;;;21.57;46.46;102679.22;5085183;28;20135;-68
2022/11/11 06:59:03;;;;;;;5.60;4.32;;;;;;;21.43;46.63;102685.00;5086103;28;20543;-68
2022/11/11 07:01:49;;;;;;;7.15;5.10;;;;;;;21.56;46.17;102690.81;5086953;28;20413;-68
2022/11/11 07:04:33;;;;;;;6.70;4.72;;;;;;;21.53;46.51;102687.59;5090394;28;20125;-68
2022/11/11 07:07:17;;;;;;;6.88;4.43;;;;;;;21.52;46.58;102697.34;5089323;28;20124;-68
2022/11/11 07:10:02;;;;;;;8.10;4.82;;;;;;;21.48;46.57;102700.44;5089433;28;20047;-68
2022/11/11 07:12:46;;;;;;;6.38;4.57;;;;;;;21.55;46.22;102718.28;5087125;28;20261;-68
2022/11/11 07:15:30;;;;;;;7.50;4.35;;;;;;;21.47;46.45;102709.38;5089123;28;20530;-68
2022/11/11 07:18:14;;;;;;;8.45;5.00;;;;;;;21.52;46.41;102713.25;5094377;28;20061;-68
2022/11/11 07:20:59;;;;;;;7.93;4.85;;;;;;;21.50;46.29;102712.56;5093891;28;20058;-68
2022/11/11 07:23:43;;;;;;;6.70;4.65;;;;;;;21.61;46.15;102720.34;5093459;28;20081;-68
2022/11/11 07:26:27;;;;;;;6.60;4.47;;;;;;;21.55;46.48;102725.41;5091806;28;20446;-68
2022/11/11 07:29:13;;;;;;;6.15;4.93;;;;;;;21.44;46.48;102717.63;5095739;28;20172;-68
2022/11/11 07:31:57;;;;;;;6.38;4.75;;;;;;;21.51;46.24;102724.00;5089666;28;20104;-68
2022/11/11 07:34:41;;;;;;;7.53;4.78;;;;;;;21.53;46.46;102730.00;5089950;28;20124;-68
2022/11/11 07:37:26;;;;;;;6.00;4.80;;;;;;;21.46;46.64;102723.63;5088395;28;20470;-68
2022/11/11 07:40:12;;;;;;;8.35;4.82;;;;;;;21.49;46.62;102734.75;5089863;28;20055;-68
2022/11/11 07:42:56;;;;;;;7.22;5.25;;;;;;;21.50;46.67;102725.00;5090507;28;20035;-67
2022/11/11 07:45:40;;;;;;;6.20;5.10;;;;;;;21.37;46.76;102723.53;5088803;28;20059;-68
2022/11/11 07:48:24;;;;;;;7.13;4.90;;;;;;;21.46;46.28;102736.88;5089672;28;20105;-68
2022/11/11 07:51:08;;;;;;;8.13;4.88;;;;;;;21.48;46.60;102741.03;5087127;28;20463;-68
2022/11/11 07:53:52;;;;;;;9.18;5.55;;;;;;;21.46;46.63;102750.13;5093304;28;20130;-68
2022/11/11 07:56:36;;;;;;;8.23;4.93;;;;;;;21.43;46.57;102748.59;5087785;28;20096;-69
2022/11/11 07:59:20;;;;;;;8.30;4.90;;;;;;;21.41;46.87;102755.84;5086451;28;20050;-68
2022/11/11 08:02:04;;;;;;;7.60;4.85;;;;;;;21.55;46.43;102767.81;5093316;28;20058;-68
2022/11/11 08:04:49;;;;;;;7.40;4.85;;;;;;;21.44;46.61;102763.53;5085395;28;20062;-68
2022/11/11 08:07:34;;;;;;;7.07;4.70;;;;;;;21.42;46.50;102770.78;5085467;28;20058;-68
2022/11/11 08:10:18;;;;;;;7.03;4.65;;;;;;;21.47;46.49;102775.66;5095206;28;20061;-67
2022/11/11 08:16:15;;;;;;;5.35;4.60;;;;;;;21.46;46.18;102780.13;5092365;28;20810;-68
2022/11/11 08:18:59;;;;;;;7.57;5.13;;;;;;;21.29;46.82;102780.84;5092337;28;20082;-68
2022/11/11 08:21:44;;;;;;;5.72;4.72;;;;;;;21.42;46.65;102784.88;5096120;28;20050;-68
2022/11/11 08:24:28;;;;;;;8.43;5.07;;;;;;;21.44;46.24;102789.19;5091733;28;20082;-68
2022/11/11 08:27:12;;;;;;;8.70;5.28;;;;;;;21.41;46.58;102800.91;5096598;28;20046;-67
2022/11/11 08:29:56;;;;;;;7.50;4.90;;;;;;;21.48;46.31;102798.53;5093398;28;20046;-67
2022/11/11 08:32:40;;;;;;;7.50;5.30;;;;;;;21.39;46.60;102800.22;5096960;28;20543;-69
2022/11/11 08:35:25;;;;;;;6.38;5.15;;;;;;;21.38;46.45;102795.91;5092722;28;20080;-68
2022/11/11 08:38:10;;;;;;;7.50;4.63;;;;;;;21.38;46.39;102798.56;5084565;28;20112;-67
2022/11/11 08:40:54;;;;;;;8.55;5.10;;;;;;;21.33;46.31;102800.78;5092731;28;20055;-67
2022/11/11 08:43:38;;;;;;;8.43;5.35;;;;;;;21.45;46.42;102796.16;5092718;28;20116;-68
2022/11/11 08:46:23;;;;;;;6.63;4.95;;;;;;;21.49;46.38;102790.41;5085174;28;20131;-68
2022/11/11 08:49:07;;;;;;;7.53;5.07;;;;;;;21.40;46.19;102800.06;5087859;28;20093;-67
2022/11/11 08:51:51;;;;;;;10.30;5.32;;;;;;;21.38;46.43;102799.38;5089477;28;20143;-67
2022/11/11 08:54:35;;;;;;;7.30;5.85;;;;;;;21.39;46.39;102813.47;5090273;28;20055;-67
2022/11/11 08:57:19;;;;;;;6.50;4.90;;;;;;;21.38;46.55;102807.34;5088754;28;20437;-68
2022/11/11 09:00:05;;;;;;;9.13;5.45;;;;;;;21.32;46.58;102809.69;5087282;28;20058;-67
2022/11/11 09:02:49;;;;;;;8.13;5.20;;;;;;;21.42;46.34;102805.22;5088798;28;20039;-68
2022/11/11 09:05:34;;;;;;;7.53;5.72;;;;;;;21.35;46.61;102820.00;5090543;28;20063;-68
2022/11/11 09:08:18;;;;;;;8.50;5.32;;;;;;;21.47;46.03;102816.25;5089605;28;20085;-67
2022/11/11 09:11:02;;;;;;;10.02;5.35;;;;;;;21.44;45.99;102815.69;5089413;28;20937;-68
2022/11/11 09:13:47;;;;;;;6.13;4.95;;;;;;;21.43;46.28;102825.47;5091034;28;20156;-67
2022/11/11 09:16:31;;;;;;;8.80;5.65;;;;;;;21.34;46.42;102834.25;5088099;28;20460;-69
2022/11/11 09:19:15;;;;;;;9.45;5.43;;;;;;;21.39;46.05;102838.16;5087896;28;20051;-67
2022/11/11 09:21:59;;;;;;;11.68;5.45;;;;;;;21.37;46.15;102828.69;5089133;28;20055;-68
2022/11/11 09:24:43;;;;;;;8.68;5.38;;;;;;;21.36;46.46;102834.94;5084603;28;21583;-67
2022/11/11 09:27:27;;;;;;;6.95;5.13;;;;;;;21.42;46.03;102839.69;5091089;28;20499;-68
2022/11/11 09:30:11;;;;;;;9.20;5.82;;;;;;;21.41;46.06;102848.63;5091539;28;20059;-68
2022/11/11 09:33:03;;;;;;;8.63;5.13;;;;;;;21.40;46.01;102852.25;5092414;28;20425;-67
2022/11/11 09:35:47;;;;;;;8.00;5.45;;;;;;;21.36;46.16;102843.75;5096488;28;20073;-68
2022/11/11 09:38:31;;;;;;;9.45;4.82;;;;;;;21.40;46.06;102857.56;5095360;28;20058;-67
2022/11/11 09:41:24;;;;;;;7.40;5.22;;;;;;;21.23;46.27;102842.34;5093563;28;20926;-67
2022/11/11 09:44:39;;;;;;;10.07;5.80;;;;;;;21.39;46.21;102859.38;5094068;28;20512;-68
2022/11/11 09:47:41;;;;;;;9.50;6.15;;;;;;;21.38;46.15;102870.94;5066609;28;20054;-68
2022/11/11 09:50:31;;;;;;;8.75;5.45;;;;;;;21.35;46.02;102870.38;5091931;28;20528;-69
2022/11/11 09:53:20;;;;;;;8.52;5.45;;;;;;;21.35;45.88;102868.56;5091443;28;20046;-65
2022/11/11 09:56:11;;;;;;;;;;;;;;;21.33;46.08;102878.47;5093466;28;20055;-65
2022/11/11 09:58:59;;;;;;;9.88;5.72;;;;;;;21.41;45.53;102875.97;5092862;28;19927;-65
2022/11/11 10:01:52;;;;;;;9.18;5.90;;;;;;;21.48;45.67;102868.28;5097081;28;20097;-66
2022/11/11 10:04:48;;;;;;;8.98;5.85;;;;;;;21.53;45.67;102886.41;5090011;28;20549;-70
2022/11/11 10:07:46;;;;;;;10.23;6.18;;;;;;;21.50;45.72;102878.72;5090212;28;20219;-71
2022/11/11 10:10:44;;;;;;;10.13;5.18;;;;;;;21.53;45.85;102878.44;5091107;28;20176;-71
2022/11/11 10:13:33;;;;;;;9.15;5.55;;;;;;;21.56;45.88;102876.38;5088277;28;20124;-70
2022/11/11 10:16:32;;;;;;;6.88;5.07;;;;;;;21.42;46.18;102880.28;5084909;28;20459;-72
2022/11/11 10:19:31;;;;;;;10.85;6.05;;;;;;;21.52;45.84;102880.25;5091199;28;20054;-69
2022/11/11 10:22:29;;;;;;;8.85;6.15;;;;;;;21.49;46.13;102882.38;5094003;28;20612;-72
2022/11/11 10:25:15;;;;;;;9.25;5.18;;;;;;;21.32;46.62;102882.09;5088869;28;20046;-72
2022/11/11 10:28:02;;;;;;;7.82;5.35;;;;;;;21.41;46.26;102889.22;5084993;28;20132;-74
2022/11/11 10:30:49;;;;;;;6.57;4.68;;;;;;;21.41;46.33;102885.72;5090665;28;20046;-73
2022/11/11 10:33:49;;;;;;;7.18;5.10;;;;;;;21.30;46.50;102888.50;5091404;28;22337;-74
2022/11/11 10:36:33;;;;;;;;;;;;;;;21.33;46.71;102889.06;5087745;28;20053;-74
2022/11/11 10:39:24;;;;;;;7.38;5.03;;;;;;;21.37;46.41;102889.66;5090313;28;19941;-74
2022/11/11 10:42:16;;;;;;;6.55;5.40;;;;;;;21.39;46.43;102888.53;5090041;28;20732;-73
2022/11/11 10:45:01;;;;;;;7.50;5.35;;;;;;;21.38;46.18;102880.72;5088609;28;20047;-73
2022/11/11 10:47:55;;;;;;;8.32;6.00;;;;;;;21.41;46.19;102877.78;5106425;27;20100;-73
2022/11/11 10:50:50;;;;;;;7.80;5.20;;;;;;;21.38;46.15;102878.91;5090573;28;20077;-73
2022/11/11 10:53:45;;;;;;;7.95;5.57;;;;;;;21.39;46.40;102871.78;5087206;28;20770;-71
2022/11/11 10:56:48;;;;;;;9.02;5.07;;;;;;;21.38;46.41;102880.72;5087997;28;20049;-73
2022/11/11 10:59:59;;;;;;;9.52;5.30;;;;;;;21.39;46.11;102869.97;5091734;28;20042;-74
2022/11/11 11:03:08;;;;;;;6.43;5.07;;;;;;;21.41;46.15;102878.63;5089402;28;20124;-73
2022/11/11 11:06:04;;;;;;;6.13;4.93;;;;;;;21.35;46.46;102878.31;5091906;28;20104;-73
2022/11/11 11:08:53;;;;;;;7.43;5.05;;;;;;;21.36;46.38;102874.69;5089895;28;20037;-74
2022/11/11 11:11:59;;;;;;;10.23;5.60;;;;;;;21.74;45.28;102860.56;5039542;28;20116;-73
2022/11/11 11:14:48;;;;;;;9.00;5.30;;;;;;;22.03;44.53;102871.91;5094719;28;20055;-68
2022/11/11 11:17:57;;;;;;;7.25;5.20;;;;;;;22.28;44.10;102870.47;5095692;28;20131;-67
2022/11/11 11:21:11;;;;;;;12.82;5.43;;;;;;;22.22;43.99;102870.19;5096853;28;20062;-67
2022/11/11 11:23:55;;;;;;;12.95;6.20;;;;;;;22.02;44.40;102872.88;5091970;28;20039;-68
2022/11/11 11:26:45;;;;;;;7.93;5.57;;;;;;;22.02;44.83;102870.22;5082825;28;20055;-73
2022/11/11 11:29:38;;;;;;;7.10;4.85;;;;;;;22.12;44.85;102874.72;5081701;28;20542;-72
2022/11/11 11:32:31;;;;;;;11.82;5.20;;;;;;;22.17;44.27;102875.94;5098244;28;20107;-72
2022/11/11 11:35:31;;;;;;;9.70;5.03;;;;;;;22.17;44.66;102873.28;5093397;28;20750;-73
2022/11/11 11:38:15;;;;;;;;;;;;;;;22.16;44.44;102871.63;5093617;28;20059;-74
2022/11/11 11:40:59;;;;;;;8.43;5.00;;;;;;;22.09;44.61;102864.41;5099579;28;20670;-73
2022/11/11 11:43:44;;;;;;;8.35;5.53;;;;;;;21.77;45.06;102862.09;5091739;28;20149;-73
2022/11/11 11:46:37;;;;;;;9.63;5.22;;;;;;;21.68;45.63;102866.41;5095349;28;20050;-73
2022/11/11 11:49:44;;;;;;;10.35;5.18;;;;;;;21.68;45.43;102866.41;5098334;28;20057;-73
2022/11/11 11:52:40;;;;;;;6.28;5.00;;;;;;;21.60;45.87;102872.44;5100595;28;20047;-74
2022/11/11 11:55:53;;;;;;;6.85;4.78;;;;;;;21.58;45.70;102882.38;5095983;28;20092;-74
2022/11/11 11:58:52;;;;;;;7.43;4.82;;;;;;;21.62;45.74;102883.75;5098848;28;20138;-74
2022/11/11 12:02:01;;;;;;;6.47;4.30;;;;;;;21.62;45.22;102872.31;5095124;28;20046;-74
2022/11/11 12:05:21;;;;;;;6.40;4.37;;;;;;;21.55;45.82;102876.50;5096220;28;20878;-73
2022/11/11 12:08:14;;;;;;;7.13;5.03;;;;;;;21.59;45.33;102878.72;5092084;28;20085;-74
2022/11/11 12:11:14;;;;;;;6.15;5.00;;;;;;;21.56;45.73;102879.03;5089379;28;20047;-74
2022/11/11 12:14:05;;;;;;;7.80;5.72;;;;;;;21.52;45.74;102877.59;5091982;28;20183;-74
2022/11/11 12:17:01;;;;;;;6.35;4.65;;;;;;;21.38;45.70;102856.88;5095659;28;20515;-74
2022/11/11 12:20:13;;;;;;;5.95;4.95;;;;;;;21.55;45.48;102865.91;5097842;28;20057;-73
2022/11/11 12:23:06;;;;;;;9.13;5.25;;;;;;;21.55;45.42;102881.81;5096670;28;20181;-74
2022/11/11 12:26:06;;;;;;;6.70;5.07;;;;;;;21.59;45.80;102883.19;5093184;28;20505;-74
2022/11/11 12:29:28;;;;;;;6.55;4.55;;;;;;;21.54;45.49;102888.06;5098106;28;20080;-73
2022/11/11 12:32:41;;;;;;;7.03;5.38;;;;;;;21.58;45.34;102892.13;5096898;28;20113;-74
2022/11/11 12:35:47;;;;;;;7.20;4.90;;;;;;;21.55;45.72;102889.78;5098164;28;20085;-74
2022/11/11 12:38:57;;;;;;;8.95;5.10;;;;;;;21.52;45.25;102897.97;5098289;28;20232;-74
2022/11/11 12:42:04;;;;;;;6.47;4.88;;;;;;;21.49;45.55;102898.25;5097068;28;20492;-75
2022/11/11 12:45:09;;;;;;;7.15;4.93;;;;;;;21.57;45.35;102898.41;5092000;28;20072;-74
2022/11/11 12:48:26;;;;;;;6.18;4.53;;;;;;;21.49;45.70;102899.09;5097814;28;20143;-73
2022/11/11 12:51:40;;;;;;;8.52;5.53;;;;;;;21.47;45.59;102909.00;5090578;28;20630;-73
2022/11/11 12:54:38;;;;;;;5.97;4.90;;;;;;;21.49;45.76;102900.91;5094445;28;20046;-74
2022/11/11 12:57:35;;;;;;;8.82;5.07;;;;;;;21.80;45.03;102899.75;5039103;28;20097;-74
2022/11/11 13:00:24;;;;;;;6.15;4.82;;;;;;;21.88;44.90;102905.19;5094260;28;21761;-73
2022/11/11 13:03:16;;;;;;;8.40;4.90;;;;;;;21.92;44.57;102913.72;5094493;28;20168;-74
2022/11/11 13:06:16;;;;;;;9.32;4.88;;;;;;;21.99;44.59;102906.84;5093284;28;20550;-74
2022/11/11 13:09:16;;;;;;;7.72;5.13;;;;;;;22.02;44.35;102909.19;5089352;28;20050;-73
2022/11/11 13:12:24;;;;;;;6.93;4.95;;;;;;;21.99;44.58;102897.06;5032826;28;20492;-73
2022/11/11 13:15:37;;;;;;;5.88;4.40;;;;;;;22.06;44.17;102902.66;5092298;28;20046;-74
2022/11/11 13:18:26;;;;;;;5.88;4.75;;;;;;;22.08;44.48;102905.97;5080262;28;20104;-73
2022/11/11 13:21:15;;;;;;;8.35;5.00;;;;;;;22.11;44.45;102915.50;5087242;28;20076;-74
2022/11/11 13:23:59;;;;;;;6.18;4.47;;;;;;;22.08;44.27;102903.34;5092799;28;20039;-74
2022/11/11 13:26:48;;;;;;;5.82;4.53;;;;;;;22.09;44.26;102906.84;5089976;28;20740;-73
2022/11/11 13:29:54;;;;;;;7.10;5.03;;;;;;;22.12;44.39;102911.88;5030992;28;20163;-74
2022/11/11 13:32:43;;;;;;;5.40;4.32;;;;;;;22.14;44.35;102923.16;5091411;28;20050;-74
2022/11/11 13:35:31;;;;;;;6.32;4.40;;;;;;;22.15;44.17;102927.50;5089248;28;20093;-73
2022/11/11 13:38:44;;;;;;;6.03;4.82;;;;;;;22.14;44.21;102929.31;5087543;28;20078;-73
2022/11/11 13:41:35;;;;;;;7.25;4.40;;;;;;;22.19;44.25;102923.56;5090009;28;20504;-73
2022/11/11 13:44:47;;;;;;;6.60;4.80;;;;;;;22.12;44.25;102927.78;5071319;28;20104;-74
2022/11/11 13:47:43;;;;;;;7.38;4.85;;;;;;;22.19;44.06;102923.56;5086423;28;20390;-74
2022/11/11 13:50:37;;;;;;;5.95;4.50;;;;;;;22.19;44.34;102916.44;5090173;28;20046;-74
2022/11/11 13:53:31;;;;;;;5.80;4.30;;;;;;;22.19;44.38;102919.09;5090005;28;20059;-73
2022/11/11 13:56:23;;;;;;;6.88;4.57;;;;;;;22.18;44.30;102914.75;5085619;28;20092;-73
2022/11/11 13:59:25;;;;;;;5.97;4.40;;;;;;;22.22;44.10;102923.25;5073981;28;20070;-74
2022/11/11 14:02:26;;;;;;;6.57;4.60;;;;;;;22.22;44.00;102923.25;5034262;28;20119;-73
2022/11/11 14:05:15;;;;;;;7.53;4.45;;;;;;;22.21;44.27;102926.91;5088213;28;20151;-73
2022/11/11 14:07:59;;;;;;;6.97;4.63;;;;;;;22.23;43.96;102930.25;5088188;28;20116;-73
2022/11/11 14:10:53;;;;;;;6.20;4.70;;;;;;;22.26;44.04;102941.44;5083407;28;20074;-73
2022/11/11 14:13:38;;;;;;;5.88;4.32;;;;;;;22.25;44.15;102941.53;5089084;28;20111;-74
2022/11/11 14:16:34;;;;;;;5.63;4.30;;;;;;;22.15;44.31;102933.63;5081148;28;20733;-74
2022/11/11 14:19:18;;;;;;;8.05;4.57;;;;;;;22.26;44.27;102938.78;5033014;28;20637;-68
2022/11/11 14:22:28;;;;;;;7.28;4.30;;;;;;;22.27;44.42;102944.91;5086163;28;20054;-68
2022/11/11 14:25:25;;;;;;;6.88;4.30;;;;;;;22.30;44.26;102952.59;5087336;28;20496;-68
2022/11/11 14:28:27;;;;;;;7.45;4.90;;;;;;;22.26;43.99;102952.06;5084643;28;20097;-68
2022/11/11 14:31:11;;;;;;;6.65;4.60;;;;;;;22.30;44.21;102956.06;5086133;28;20055;-68
2022/11/11 14:34:19;;;;;;;6.57;4.70;;;;;;;22.21;44.26;102948.13;5059742;28;20196;-67
2022/11/11 14:37:34;;;;;;;5.32;4.22;;;;;;;22.28;44.06;102949.25;5092596;28;20086;-69